createdAt,value
2018-09-10T00:02:19.495Z,84.10
2018-09-10T00:04:50.166Z,83.90
2018-09-10T00:07:20.853Z,83.90
2018-09-10T00:09:51.724Z,83.90
2018-09-10T00:12:22.433Z,83.60
2018-09-10T00:14:53.117Z,83.90
2018-09-10T00:17:23.780Z,84.00
2018-09-10T00:19:54.446Z,84.30
2018-09-10T00:22:25.121Z,83.80
2018-09-10T00:24:55.782Z,83.80
2018-09-10T00:27:26.464Z,83.50
2018-09-10T00:29:57.137Z,83.70
2018-09-10T00:32:28.008Z,83.70
2018-09-10T00:34:58.673Z,83.70
2018-09-10T00:37:30.649Z,83.90
2018-09-10T00:40:02.311Z,83.70
2018-09-10T00:42:33.110Z,83.90
2018-09-10T00:45:04.927Z,84.80
2018-09-10T00:47:36.764Z,85.00
2018-09-10T00:50:08.368Z,85.10
2018-09-10T00:52:39.906Z,85.10
2018-09-10T00:55:11.220Z,84.30
2018-09-10T00:57:42.946Z,84.30
2018-09-10T01:00:13.638Z,84.60
2018-09-10T01:02:44.284Z,84.40
2018-09-10T01:05:14.971Z,83.90
2018-09-10T01:07:45.634Z,85.30
2018-09-10T01:10:16.365Z,84.30
2018-09-10T01:12:47.229Z,83.90
2018-09-10T01:15:17.924Z,83.30
2018-09-10T01:17:48.612Z,82.60
2018-09-10T01:20:19.651Z,82.30
2018-09-10T01:22:50.331Z,82.20
2018-09-10T01:25:21.044Z,81.80
2018-09-10T01:27:51.733Z,82.70
2018-09-10T01:30:22.496Z,82.30
2018-09-10T01:32:53.232Z,82.30
2018-09-10T01:35:24.069Z,82.50
2018-09-10T01:37:54.707Z,82.50
2018-09-10T01:40:25.401Z,81.70
2018-09-10T01:42:56.044Z,82.40
2018-09-10T01:45:26.726Z,81.40
2018-09-10T01:47:57.614Z,81.90
2018-09-10T01:50:28.304Z,82.30
2018-09-10T01:52:58.959Z,82.00
2018-09-10T01:55:29.676Z,81.50
2018-09-10T01:58:00.348Z,82.10
2018-09-10T02:00:31.036Z,81.30
2018-09-10T02:03:01.688Z,81.10
2018-09-10T02:05:32.392Z,81.20
2018-09-10T02:08:03.448Z,81.30
2018-09-10T02:10:34.199Z,80.90
2018-09-10T02:13:04.967Z,81.60
2018-09-10T02:15:51.076Z,81.50
2018-09-10T02:18:22.654Z,81.50
2018-09-10T02:20:53.344Z,81.60
2018-09-10T02:23:24.444Z,81.80
2018-09-10T02:25:55.128Z,82.00
2018-09-10T02:28:25.816Z,82.20
2018-09-10T02:30:56.541Z,82.10
2018-09-10T02:33:27.556Z,82.90
2018-09-10T02:35:58.273Z,82.60
2018-09-10T02:38:28.969Z,82.00
2018-09-10T02:40:59.822Z,81.00
2018-09-10T02:43:30.477Z,79.10
2018-09-10T02:46:01.164Z,79.10
2018-09-10T02:48:31.825Z,79.00
2018-09-10T02:51:02.537Z,79.10
2018-09-10T02:53:33.189Z,79.30
2018-09-10T02:56:03.928Z,79.70
2018-09-10T02:58:34.601Z,78.90
2018-09-10T03:01:05.440Z,79.80
2018-09-10T03:03:36.351Z,80.00
2018-09-10T03:06:07.377Z,80.20
2018-09-10T03:08:38.024Z,79.40
2018-09-10T03:11:08.699Z,79.70
2018-09-10T03:13:39.471Z,80.50
2018-09-10T03:16:10.145Z,80.20
2018-09-10T03:18:40.805Z,80.20
2018-09-10T03:21:11.484Z,80.50
2018-09-10T03:23:42.132Z,80.40
2018-09-10T03:26:12.860Z,80.90
2018-09-10T03:28:43.542Z,81.60
2018-09-10T03:31:14.220Z,81.90
2018-09-10T03:33:44.915Z,82.60
2018-09-10T03:36:15.793Z,81.90
2018-09-10T03:38:46.455Z,82.30
2018-09-10T03:41:17.136Z,82.70
2018-09-10T03:43:47.793Z,83.20
2018-09-10T03:46:18.509Z,83.30
2018-09-10T03:48:49.195Z,83.90
2018-09-10T03:51:19.871Z,83.50
2018-09-10T03:53:50.521Z,83.60
2018-09-10T03:56:21.244Z,82.60
2018-09-10T03:58:52.020Z,83.00
2018-09-10T04:01:22.710Z,83.10
2018-09-10T04:03:53.384Z,82.60
2018-09-10T04:06:24.263Z,83.10
2018-09-10T04:08:54.909Z,83.20
2018-09-10T04:11:25.596Z,84.10
2018-09-10T04:13:56.272Z,83.70
2018-09-10T04:16:26.920Z,83.70
2018-09-10T04:18:57.834Z,83.80
2018-09-10T04:21:28.533Z,84.00
2018-09-10T04:23:59.593Z,83.10
2018-09-10T04:26:30.621Z,83.30
2018-09-10T04:29:01.447Z,84.40
2018-09-10T04:31:32.098Z,84.10
2018-09-10T04:34:02.777Z,84.10
2018-09-10T04:36:33.480Z,84.10
2018-09-10T04:39:06.254Z,83.20
2018-09-10T04:41:39.865Z,82.70
2018-09-10T04:44:11.212Z,83.10
2018-09-10T04:46:42.608Z,83.40
2018-09-10T04:49:13.902Z,83.30
2018-09-10T04:51:44.536Z,82.80
2018-09-10T04:54:17.007Z,83.00
2018-09-10T04:56:47.685Z,82.90
2018-09-10T04:59:18.384Z,82.40
2018-09-10T05:01:49.037Z,82.30
2018-09-10T05:04:19.764Z,82.80
2018-09-10T05:06:50.582Z,82.00
2018-09-10T05:09:21.468Z,82.00
2018-09-10T05:11:52.112Z,81.90
2018-09-10T05:14:22.794Z,82.40
2018-09-10T05:16:53.439Z,83.10
2018-09-10T05:19:24.132Z,83.40
2018-09-10T05:21:54.888Z,82.60
2018-09-10T05:24:25.681Z,83.40
2018-09-10T05:26:56.356Z,83.50
2018-09-10T05:29:27.065Z,83.70
2018-09-10T05:31:57.714Z,84.00
2018-09-10T05:34:28.404Z,84.50
2018-09-10T05:36:59.060Z,84.10
2018-09-10T05:39:29.731Z,83.70
2018-09-10T05:42:00.408Z,84.80
2018-09-10T05:44:31.270Z,84.30
2018-09-10T05:47:01.936Z,85.00
2018-09-10T05:49:32.616Z,84.70
2018-09-10T05:52:03.296Z,84.40
2018-09-10T05:54:33.971Z,84.50
2018-09-10T05:57:04.664Z,85.50
2018-09-10T05:59:35.349Z,84.60
2018-09-10T06:02:06.012Z,84.90
2018-09-10T06:04:36.699Z,85.30
2018-09-10T06:07:07.389Z,84.90
2018-09-10T06:09:38.085Z,84.10
2018-09-10T06:12:08.761Z,83.90
2018-09-10T06:14:39.449Z,84.80
2018-09-10T06:17:10.136Z,85.20
2018-09-10T06:19:40.790Z,85.40
2018-09-10T06:22:11.617Z,85.30
2018-09-10T06:24:42.276Z,85.60
2018-09-10T06:27:12.952Z,85.80
2018-09-10T06:29:43.617Z,85.60
2018-09-10T06:32:14.296Z,85.10
2018-09-10T06:34:44.949Z,84.80
2018-09-10T06:37:15.751Z,84.10
2018-09-10T06:39:46.512Z,84.30
2018-09-10T06:42:17.205Z,84.40
2018-09-10T06:44:47.851Z,84.60
2018-09-10T06:47:18.552Z,84.80
2018-09-10T06:49:49.208Z,85.00
2018-09-10T06:52:20.120Z,83.80
2018-09-10T06:54:50.776Z,83.00
2018-09-10T06:57:21.480Z,82.30
2018-09-10T06:59:52.357Z,82.30
2018-09-10T07:02:23.057Z,82.40
2018-09-10T07:04:53.937Z,82.50
2018-09-10T07:07:24.645Z,82.90
2018-09-10T07:10:02.038Z,82.90
2018-09-10T07:12:32.826Z,82.70
2018-09-10T07:15:03.685Z,83.50
2018-09-10T07:17:34.368Z,84.60
2018-09-10T07:20:06.537Z,84.10
2018-09-10T07:22:37.351Z,83.60
2018-09-10T07:25:08.062Z,83.30
2018-09-10T07:27:38.700Z,82.70
2018-09-10T07:30:09.746Z,81.90
2018-09-10T07:32:40.405Z,81.70
2018-09-10T07:35:11.131Z,80.20
2018-09-10T07:37:41.789Z,79.40
2018-09-10T07:40:12.507Z,80.10
2018-09-10T07:42:43.166Z,80.80
2018-09-10T07:45:13.853Z,79.00
2018-09-10T07:47:44.506Z,78.50
2018-09-10T07:50:15.205Z,78.10
2018-09-10T07:52:45.897Z,78.10
2018-09-10T07:55:16.605Z,76.80
2018-09-10T07:57:47.332Z,76.00
2018-09-10T08:00:18.002Z,74.80
2018-09-10T08:02:48.966Z,75.00
2018-09-10T08:05:20.017Z,74.50
2018-09-10T08:07:50.758Z,73.30
2018-09-10T08:10:21.477Z,73.60
2018-09-10T08:12:52.197Z,73.90
2018-09-10T08:15:22.889Z,74.10
2018-09-10T08:17:53.552Z,73.80
2018-09-10T08:20:24.249Z,73.30
2018-09-10T08:22:54.933Z,73.50
2018-09-10T08:25:25.632Z,73.80
2018-09-10T08:27:56.320Z,74.00
2018-09-10T08:30:27.029Z,73.70
2018-09-10T08:32:57.877Z,72.90
2018-09-10T08:35:28.613Z,72.80
2018-09-10T08:37:59.332Z,71.10
2018-09-10T08:40:30.043Z,71.60
2018-09-10T08:43:00.710Z,70.70
2018-09-10T08:45:31.421Z,71.10
2018-09-10T08:48:02.113Z,71.90
2018-09-10T08:50:32.801Z,71.10
2018-09-10T08:53:03.503Z,71.80
2018-09-10T08:55:34.684Z,70.30
2018-09-10T08:58:05.462Z,70.00
2018-09-10T09:00:36.471Z,68.10
2018-09-10T09:03:07.171Z,68.20
2018-09-10T09:05:37.820Z,68.10
2018-09-10T09:08:08.733Z,67.80
2018-09-10T09:10:39.464Z,67.90
2018-09-10T09:13:10.125Z,68.40
2018-09-10T09:15:40.824Z,65.30
2018-09-10T09:18:11.565Z,64.40
2018-09-10T09:20:42.426Z,63.40
2018-09-10T09:23:13.366Z,63.20
2018-09-10T09:25:44.159Z,64.40
2018-09-10T09:28:14.877Z,63.20
2018-09-10T09:30:45.582Z,63.90
2018-09-10T09:33:16.531Z,64.50
2018-09-10T09:35:52.669Z,64.40
2018-09-10T09:38:29.359Z,63.10
2018-09-10T09:41:05.183Z,63.80
2018-09-10T09:43:41.065Z,64.10
2018-09-10T09:46:14.449Z,64.00
2018-09-10T09:48:44.864Z,64.00
2018-09-10T09:51:15.671Z,63.70
2018-09-10T09:53:46.472Z,61.70
2018-09-10T09:56:17.168Z,60.90
2018-09-10T09:58:47.864Z,61.30
2018-09-10T10:01:22.041Z,61.80
2018-09-10T10:03:57.866Z,61.60
2018-09-10T10:06:28.729Z,60.50
2018-09-10T10:08:59.380Z,61.70
2018-09-10T10:11:29.765Z,61.80
2018-09-10T10:14:00.628Z,61.20
2018-09-10T10:16:31.058Z,59.90
2018-09-10T10:19:01.904Z,59.70
2018-09-10T10:21:32.303Z,60.00
2018-09-10T10:24:03.035Z,60.30
2018-09-10T10:26:33.436Z,60.10
2018-09-10T10:29:03.834Z,60.90
2018-09-10T10:31:34.228Z,61.30
2018-09-10T10:34:04.651Z,60.50
2018-09-10T10:36:35.213Z,60.50
2018-09-10T10:39:07.677Z,59.90
2018-09-10T10:41:38.250Z,59.90
2018-09-10T10:44:08.616Z,59.80
2018-09-10T10:46:39.024Z,59.90
2018-09-10T10:49:09.404Z,59.00
2018-09-10T10:51:39.855Z,59.40
2018-09-10T10:54:10.245Z,58.40
2018-09-10T10:56:40.682Z,58.90
2018-09-10T10:59:11.097Z,58.70
2018-09-10T11:01:41.505Z,58.50
2018-09-10T11:04:11.938Z,57.40
2018-09-10T11:06:42.513Z,57.00
2018-09-10T11:09:12.880Z,56.70
2018-09-10T11:11:43.297Z,57.50
2018-09-10T11:14:13.677Z,57.50
2018-09-10T11:16:44.127Z,56.70
2018-09-10T11:19:14.651Z,56.60
2018-09-10T11:21:45.044Z,56.40
2018-09-10T11:24:15.445Z,56.70
2018-09-10T11:26:45.818Z,56.40
2018-09-10T11:29:16.221Z,55.80
2018-09-10T11:31:46.594Z,56.10
2018-09-10T11:34:17.353Z,55.10
2018-09-10T11:36:47.944Z,54.70
2018-09-10T11:39:18.344Z,54.30
2018-09-10T11:41:48.754Z,54.00
2018-09-10T11:44:19.129Z,54.40
2018-09-10T11:46:49.529Z,53.80
2018-09-10T11:49:19.937Z,53.30
2018-09-10T11:51:50.340Z,52.90
2018-09-10T11:54:20.745Z,53.40
2018-09-10T11:56:51.148Z,52.70
2018-09-10T11:59:21.572Z,51.90
2018-09-10T12:01:51.988Z,51.30
2018-09-10T12:04:22.565Z,51.30
2018-09-10T12:06:52.968Z,51.00
2018-09-10T12:09:23.361Z,50.90
2018-09-10T12:11:53.727Z,50.40
2018-09-10T12:14:24.129Z,50.00
2018-09-10T12:16:54.497Z,49.90
2018-09-10T12:19:24.905Z,50.10
2018-09-10T12:21:55.285Z,49.70
2018-09-10T12:24:25.707Z,49.70
2018-09-10T12:26:56.103Z,50.00
2018-09-10T12:29:26.507Z,50.60
2018-09-10T12:31:56.872Z,50.80
2018-09-10T12:34:27.343Z,50.70
2018-09-10T12:36:57.952Z,51.50
2018-09-10T12:39:28.373Z,52.40
2018-09-10T12:41:58.944Z,51.40
2018-09-10T12:44:29.371Z,51.90
2018-09-10T12:46:59.777Z,51.90
2018-09-10T12:49:30.176Z,52.10
2018-09-10T12:52:00.629Z,52.70
2018-09-10T12:54:31.016Z,53.00
2018-09-10T12:57:01.469Z,53.00
2018-09-10T12:59:31.868Z,52.10
2018-09-10T13:02:02.278Z,53.20
2018-09-10T13:04:32.653Z,53.40
2018-09-10T13:07:03.081Z,53.30
2018-09-10T13:09:33.452Z,54.30
2018-09-10T13:12:04.204Z,54.40
2018-09-10T13:14:34.582Z,53.10
2018-09-10T13:17:04.995Z,52.60
2018-09-10T13:19:35.380Z,52.90
2018-09-10T13:22:06.138Z,52.00
2018-09-10T13:24:36.530Z,51.00
2018-09-10T13:27:07.284Z,51.70
2018-09-10T13:29:37.736Z,50.90
2018-09-10T13:32:08.279Z,51.20
2018-09-10T13:34:38.705Z,50.90
2018-09-10T13:37:09.081Z,49.90
2018-09-10T13:39:39.512Z,50.00
2018-09-10T13:42:09.887Z,49.90
2018-09-10T13:44:40.289Z,50.30
2018-09-10T13:47:10.673Z,50.00
2018-09-10T13:49:41.109Z,50.00
2018-09-10T13:52:11.487Z,49.40
2018-09-10T13:54:41.910Z,49.80
2018-09-10T13:57:12.336Z,49.60
2018-09-10T13:59:42.754Z,50.60
2018-09-10T14:02:13.483Z,50.70
2018-09-10T14:04:43.893Z,50.30
2018-09-10T14:07:14.287Z,51.10
2018-09-10T14:09:44.686Z,51.30
2018-09-10T14:12:15.296Z,51.10
2018-09-10T14:14:45.908Z,51.60
2018-09-10T14:17:16.306Z,52.70
2018-09-10T14:19:46.900Z,52.10
2018-09-10T14:22:17.471Z,52.60
2018-09-10T14:24:48.070Z,52.00
2018-09-10T14:27:18.509Z,52.30
2018-09-10T14:29:49.094Z,51.80
2018-09-10T14:32:19.661Z,52.80
2018-09-10T14:34:50.066Z,53.00
2018-09-10T14:37:20.485Z,52.80
2018-09-10T14:39:51.120Z,53.50
2018-09-10T14:42:21.712Z,53.30
2018-09-10T14:44:52.140Z,53.00
2018-09-10T14:47:22.717Z,53.60
2018-09-10T14:49:53.480Z,53.50
2018-09-10T14:52:24.052Z,52.80
2018-09-10T14:54:54.667Z,52.90
2018-09-10T14:57:25.073Z,53.20
2018-09-10T14:59:55.459Z,53.50
2018-09-10T15:02:25.900Z,53.80
2018-09-10T15:04:56.320Z,53.90
2018-09-10T15:07:26.721Z,53.90
2018-09-10T15:09:57.117Z,54.80
2018-09-10T15:12:27.517Z,55.00
2018-09-10T15:14:57.889Z,55.40
2018-09-10T15:17:28.321Z,54.80
2018-09-10T15:19:58.908Z,55.10
2018-09-10T15:22:29.325Z,54.80
2018-09-10T15:24:59.697Z,54.60
2018-09-10T15:27:30.097Z,54.30
2018-09-10T15:30:00.468Z,54.50
2018-09-10T15:32:30.907Z,55.00
2018-09-10T15:35:01.301Z,54.80
2018-09-10T15:37:38.770Z,54.80
2018-09-10T15:40:09.492Z,55.20
2018-09-10T15:42:39.893Z,54.40
2018-09-10T15:45:10.356Z,55.10
2018-09-10T15:47:40.913Z,55.30
2018-09-10T15:50:11.329Z,55.40
2018-09-10T15:52:41.713Z,55.60
2018-09-10T15:55:12.114Z,55.40
2018-09-10T15:57:42.515Z,55.50
2018-09-10T16:00:12.988Z,55.80
2018-09-10T16:02:43.537Z,55.50
2018-09-10T16:05:13.948Z,55.90
2018-09-10T16:07:44.367Z,56.10
2018-09-10T16:10:14.969Z,55.80
2018-09-10T16:12:45.360Z,55.20
2018-09-10T16:15:15.733Z,56.00
2018-09-10T16:17:46.321Z,56.20
2018-09-10T16:20:16.695Z,55.50
2018-09-10T16:22:47.133Z,56.20
2018-09-10T16:25:17.684Z,56.50
2018-09-10T16:27:48.263Z,56.80
2018-09-10T16:30:19.555Z,56.30
2018-09-10T16:32:49.952Z,56.50
2018-09-10T16:35:20.324Z,56.50
2018-09-10T16:37:50.915Z,57.10
2018-09-10T16:40:21.273Z,57.10
2018-09-10T16:42:51.677Z,56.60
2018-09-10T16:45:22.055Z,56.10
2018-09-10T16:47:52.468Z,56.70
2018-09-10T16:50:22.867Z,56.80
2018-09-10T16:52:53.250Z,57.10
2018-09-10T16:55:23.639Z,57.10
2018-09-10T16:57:54.037Z,57.40
2018-09-10T17:00:24.428Z,57.80
2018-09-10T17:02:54.837Z,58.10
2018-09-10T17:05:25.244Z,57.70
2018-09-10T17:07:55.684Z,58.40
2018-09-10T17:10:26.090Z,58.30
2018-09-10T17:12:56.507Z,58.50
2018-09-10T17:15:27.430Z,58.50
2018-09-10T17:17:57.830Z,58.70
2018-09-10T17:20:28.217Z,58.70
2018-09-10T17:22:58.706Z,58.60
2018-09-10T17:25:29.219Z,58.30
2018-09-10T17:27:59.620Z,58.40
2018-09-10T17:30:30.150Z,59.10
2018-09-10T17:33:00.721Z,58.70
2018-09-10T17:35:31.097Z,58.80
2018-09-10T17:38:01.513Z,59.00
2018-09-10T17:40:31.925Z,59.20
2018-09-10T17:43:02.321Z,59.00
2018-09-10T17:45:32.721Z,59.10
2018-09-10T17:48:03.340Z,59.30
2018-09-10T17:50:34.077Z,59.70
2018-09-10T17:53:04.721Z,59.60
2018-09-10T17:55:35.264Z,59.70
2018-09-10T17:58:05.927Z,59.80
2018-09-10T18:00:39.572Z,59.90
2018-09-10T18:03:11.624Z,60.60
2018-09-10T18:05:42.675Z,61.70
2018-09-10T18:08:13.387Z,61.40
2018-09-10T18:10:44.044Z,61.60
2018-09-10T18:13:14.684Z,62.10
2018-09-10T18:15:45.251Z,62.50
2018-09-10T18:18:15.619Z,63.30
2018-09-10T18:20:46.034Z,62.70
2018-09-10T18:23:16.469Z,63.70
2018-09-10T18:25:46.940Z,64.00
2018-09-10T18:28:17.344Z,65.00
2018-09-10T18:30:47.736Z,65.30
2018-09-10T18:33:18.418Z,65.60
2018-09-10T18:35:48.838Z,65.80
2018-09-10T18:38:19.228Z,65.50
2018-09-10T18:40:49.655Z,66.50
2018-09-10T18:43:20.049Z,67.00
2018-09-10T18:45:50.457Z,67.00
2018-09-10T18:48:20.930Z,67.60
2018-09-10T18:50:51.364Z,68.70
2018-09-10T18:53:21.768Z,69.30
2018-09-10T18:55:52.693Z,69.90
2018-09-10T18:58:23.385Z,70.00
2018-09-10T19:00:53.920Z,70.60
2018-09-10T19:03:24.462Z,70.40
2018-09-10T19:05:54.924Z,70.90
2018-09-10T19:08:25.871Z,71.20
2018-09-10T19:10:56.301Z,71.50
2018-09-10T19:13:27.278Z,71.50
2018-09-10T19:16:01.625Z,72.00
2018-09-10T19:18:41.793Z,72.20
2018-09-10T19:21:16.636Z,72.80
2018-09-10T19:23:50.349Z,72.80
2018-09-10T19:26:27.123Z,72.70
2018-09-10T19:29:02.834Z,73.00
2018-09-10T19:31:39.351Z,73.30
2018-09-10T19:34:14.281Z,73.90
2018-09-10T19:36:52.423Z,73.90
2018-09-10T19:39:27.492Z,74.00
2018-09-10T19:42:01.887Z,74.60
2018-09-10T19:44:38.800Z,74.80
2018-09-10T19:47:14.779Z,75.20
2018-09-10T19:49:48.394Z,75.30
2018-09-10T19:52:22.956Z,75.20
2018-09-10T19:54:55.236Z,75.30
2018-09-10T19:57:27.911Z,75.60
2018-09-10T20:00:00.670Z,75.80
2018-09-10T20:02:32.698Z,75.60
2018-09-10T20:05:04.152Z,75.90
2018-09-10T20:07:34.829Z,76.20
2018-09-10T20:10:06.634Z,76.70
2018-09-10T20:12:37.561Z,76.90
2018-09-10T20:15:08.759Z,76.90
2018-09-10T20:17:39.595Z,76.90
2018-09-10T20:20:10.305Z,76.90
2018-09-10T20:22:41.055Z,76.80
2018-09-10T20:25:11.834Z,77.20
2018-09-10T20:27:42.561Z,77.30
2018-09-10T20:30:13.245Z,76.30
2018-09-10T20:32:43.964Z,76.90
2018-09-10T20:35:14.926Z,77.40
2018-09-10T20:37:45.616Z,77.70
2018-09-10T20:40:16.396Z,77.60
2018-09-10T20:42:47.085Z,77.90
2018-09-10T20:45:17.815Z,77.80
2018-09-10T20:47:48.567Z,78.00
2018-09-10T20:50:19.326Z,78.40
2018-09-10T20:52:50.076Z,78.70
2018-09-10T20:55:20.818Z,78.60
2018-09-10T20:57:51.553Z,79.00
2018-09-10T21:00:22.300Z,79.10
2018-09-10T21:02:52.995Z,79.40
2018-09-10T21:05:23.739Z,79.90
2018-09-10T21:07:54.439Z,80.10
2018-09-10T21:10:25.162Z,80.30
2018-09-10T21:12:55.869Z,80.60
2018-09-10T21:15:26.658Z,80.90
2018-09-10T21:17:57.528Z,80.60
2018-09-10T21:20:28.278Z,80.60
2018-09-10T21:22:58.970Z,80.70
2018-09-10T21:25:29.754Z,80.50
2018-09-10T21:28:00.649Z,80.40
2018-09-10T21:30:31.336Z,80.40
2018-09-10T21:33:02.108Z,80.50
2018-09-10T21:35:33.089Z,80.20
2018-09-10T21:38:03.903Z,80.40
2018-09-10T21:40:34.637Z,79.90
2018-09-10T21:43:05.561Z,79.40
2018-09-10T21:45:36.265Z,79.80
2018-09-10T21:48:07.025Z,80.00
2018-09-10T21:50:37.707Z,79.80
2018-09-10T21:53:08.453Z,80.00
2018-09-10T21:55:39.216Z,79.60
2018-09-10T21:58:10.144Z,79.50
2018-09-10T22:00:46.237Z,79.40
2018-09-10T22:03:17.396Z,79.10
2018-09-10T22:05:48.140Z,79.10
2018-09-10T22:08:18.848Z,78.80
2018-09-10T22:10:49.600Z,78.60
2018-09-10T22:13:20.464Z,78.40
2018-09-10T22:15:51.168Z,78.30
2018-09-10T22:18:21.821Z,78.40
2018-09-10T22:20:52.517Z,77.90
2018-09-10T22:23:23.366Z,78.20
2018-09-10T22:25:54.371Z,78.20
2018-09-10T22:28:25.734Z,78.10
2018-09-10T22:30:56.948Z,78.20
2018-09-10T22:33:27.771Z,78.00
2018-09-10T22:35:58.427Z,79.00
2018-09-10T22:38:29.561Z,78.30
2018-09-10T22:41:00.262Z,78.20
2018-09-10T22:43:30.978Z,79.00
2018-09-10T22:46:01.638Z,78.20
2018-09-10T22:48:32.316Z,78.70
2018-09-10T22:51:03.487Z,78.60
2018-09-10T22:53:34.176Z,78.80
2018-09-10T22:56:04.846Z,79.10
2018-09-10T22:58:35.937Z,79.00
2018-09-10T23:01:06.588Z,78.80
2018-09-10T23:03:37.276Z,78.60
2018-09-10T23:06:07.932Z,78.80
2018-09-10T23:08:38.654Z,78.80
2018-09-10T23:11:09.520Z,79.00
2018-09-10T23:13:40.232Z,79.00
2018-09-10T23:16:10.888Z,79.00
2018-09-10T23:18:41.568Z,79.10
2018-09-10T23:21:12.227Z,79.60
2018-09-10T23:23:42.994Z,79.20
2018-09-10T23:26:13.664Z,79.70
2018-09-10T23:28:44.348Z,80.30
2018-09-10T23:31:15.157Z,80.10
2018-09-10T23:33:45.890Z,80.10
2018-09-10T23:36:16.553Z,80.60
2018-09-10T23:38:47.261Z,80.90
2018-09-10T23:41:17.941Z,81.40
2018-09-10T23:43:48.626Z,81.30
2018-09-10T23:46:19.321Z,81.30
2018-09-10T23:48:49.963Z,81.60
2018-09-10T23:51:20.662Z,81.90
2018-09-10T23:53:51.328Z,81.90
2018-09-10T23:56:22.016Z,82.10
2018-09-10T23:58:52.716Z,82.30
